TimeEST,TemperatureF,Dew PointF,Humidity,Sea Level PressureIn,VisibilityMPH,Wind Direction,Wind SpeedMPH,Gust SpeedMPH,PrecipitationIn,Events,Conditions,WindDirDegrees,DateUTC
12:53 AM,55.0,53.1,93,30.02,6.0,West,6.9,-,0.04,Rain,Rain,270,2013-12-23 05:53:00
1:53 AM,55.0,54.0,96,30.03,10.0,WSW,6.9,-,0.03,Rain,Light Rain,250,2013-12-23 06:53:00
2:18 AM,55.4,53.6,94,30.06,10.0,SW,8.1,-,0.01,Rain,Light Rain,230,2013-12-23 07:18:00
2:53 AM,55.0,53.1,93,30.05,10.0,SSW,9.2,-,0.01,Rain,Light Rain,210,2013-12-23 07:53:00
3:41 AM,53.6,51.8,94,30.04,10.0,SW,5.8,-,0.02,Rain,Light Rain,220,2013-12-23 08:41:00
3:53 AM,54.0,52.0,93,30.04,10.0,SW,5.8,-,0.02,Rain,Light Rain,220,2013-12-23 08:53:00
4:53 AM,54.0,51.1,90,30.05,10.0,SW,8.1,-,0.00,,Overcast,230,2013-12-23 09:53:00
5:53 AM,53.1,51.1,93,30.05,10.0,SSW,6.9,-,N/A,,Mostly Cloudy,210,2013-12-23 10:53:00
6:20 AM,53.6,51.8,94,30.08,10.0,SSW,8.1,-,N/A,,Overcast,210,2013-12-23 11:20:00
6:53 AM,52.0,48.9,89,30.11,5.0,West,11.5,-,0.01,Rain,Light Rain,260,2013-12-23 11:53:00
7:16 AM,48.2,44.6,87,30.13,4.0,West,13.8,-,0.01,Rain,Light Rain,280,2013-12-23 12:16:00
7:47 AM,46.4,44.6,93,30.16,4.0,West,11.5,-,0.01,Rain,Light Rain,270,2013-12-23 12:47:00
7:53 AM,46.0,43.0,89,30.16,4.0,West,10.4,-,0.01,Rain,Light Rain,280,2013-12-23 12:53:00
8:17 AM,46.4,44.6,93,30.18,3.0,Calm,Calm,-,0.00,Rain,Light Rain,0,2013-12-23 13:17:00
8:43 AM,44.6,39.2,81,30.20,2.5,NNE,4.6,-,0.00,Rain,Light Rain,20,2013-12-23 13:43:00
8:45 AM,44.6,39.2,81,30.20,2.5,NNE,5.8,-,0.00,Rain,Light Rain,20,2013-12-23 13:45:00
8:53 AM,45.0,39.9,82,30.21,2.5,North,5.8,-,0.00,Rain,Light Rain,10,2013-12-23 13:53:00
9:04 AM,44.6,39.2,81,30.22,3.0,NNE,5.8,-,0.01,Rain,Light Rain,30,2013-12-23 14:04:00
9:32 AM,44.6,39.2,81,30.24,3.0,North,6.9,-,0.01,Rain,Light Rain,10,2013-12-23 14:32:00
9:53 AM,43.0,37.9,82,30.26,3.0,North,9.2,-,0.01,Rain,Light Rain,360,2013-12-23 14:53:00
10:48 AM,42.8,37.4,81,30.27,7.0,North,6.9,-,0.00,,Overcast,10,2013-12-23 15:48:00
10:53 AM,42.1,37.0,82,30.27,7.0,North,6.9,-,0.00,,Overcast,10,2013-12-23 15:53:00
11:31 AM,42.8,35.6,76,30.27,10.0,North,6.9,-,N/A,,Overcast,360,2013-12-23 16:31:00
11:53 AM,42.1,36.0,79,30.27,10.0,North,6.9,-,N/A,,Overcast,360,2013-12-23 16:53:00
12:53 PM,41.0,35.1,79,30.27,10.0,North,8.1,-,N/A,,Overcast,360,2013-12-23 17:53:00
1:53 PM,42.1,36.0,79,30.26,10.0,North,5.8,-,N/A,,Overcast,360,2013-12-23 18:53:00
2:53 PM,41.0,34.0,76,30.27,10.0,North,6.9,-,N/A,,Overcast,360,2013-12-23 19:53:00
3:53 PM,39.9,33.1,77,30.27,10.0,North,10.4,-,N/A,,Overcast,10,2013-12-23 20:53:00
4:53 PM,37.9,30.0,73,30.29,10.0,North,13.8,-,N/A,,Overcast,350,2013-12-23 21:53:00
5:53 PM,37.0,28.9,73,30.31,10.0,North,11.5,-,N/A,,Overcast,360,2013-12-23 22:53:00
6:53 PM,37.0,28.0,70,30.32,10.0,North,8.1,-,N/A,,Overcast,10,2013-12-23 23:53:00
7:53 PM,36.0,27.0,70,30.32,10.0,North,8.1,-,N/A,,Overcast,360,2013-12-24 00:53:00
8:53 PM,36.0,27.0,70,30.34,10.0,North,8.1,-,N/A,,Overcast,350,2013-12-24 01:53:00
9:53 PM,36.0,27.0,70,30.34,10.0,North,4.6,-,N/A,,Overcast,10,2013-12-24 02:53:00
10:53 PM,36.0,26.1,67,30.35,10.0,North,5.8,-,N/A,,Overcast,360,2013-12-24 03:53:00
11:53 PM,35.1,26.1,70,30.35,10.0,NNW,4.6,-,N/A,,Overcast,340,2013-12-24 04:53:00